Pagrindinis puslapis
METAR-TAF:

METAR-TAF

Oro uostai :

Kirkenesas, Norvegija

platuma: 69-44N, ilguma: 029-54E, Aukštis: 9 m

Dabartinis oras

Ataskaita buvo paskelbta 18 minutes, ne 19:50 UTC
Vėjas 9 kt iš Pietų
Temperatūra -4°C
Drėgmė 93%
Slėgis 1005 hPa
Matomumas 10 km arba daugiau
Su prošvaistėmis ne aukštis 1000 ft

METAR: ENKR 251950Z 19009KT 9999 BKN010 M04/M05 Q1005 RMK WIND 731FT 20014KT

Laikas: 21:08 (20:08 UTC)

Prognozė

Ataskaita buvo paskelbta 3 valandos ir 8 minutes, ne 17:00 UTC
Prognozė galioja nuo 25 metu 18 UTC su 26 metu 03 UTC
Vėjas 15 kt iš Pietų
Matomumas 10 km arba daugiau
Su prošvaistėmis ne aukštis 800 ft
Laikinai
nuo 25 metu 18 UTC su 26 metu 03 UTC
Su prošvaistėmis ne aukštis 2000 ft

TAF: ENKR 251700Z 2518/2603 19015KT 9999 BKN008 TEMPO 2518/2603 BKN020

Orai ataskaitas ir orų prognozės (METAR, TAF).

turimą stotys yra geltonos ir raudonos taškus žemėlapyje.

Perkelti pele per norėdami pamatyti stoties vardą.

Tada spustelėkite, norėdami matyti oro stebėjimo ir prognozės.

Norėdami pakeisti žemėlapį: spustelėkite ant žalios mygtukų su juodo kryžiaus žemyn,; žalią mygtuką su brūkšneliu, jei norite nutolinti; arba žalių rodyklių gretimoms žemėlapius.


METAR-TAF: